createdAt,value
2017-11-29T00:01:24.759Z,68.93
2017-11-29T00:03:51.809Z,69.05
2017-11-29T00:06:18.644Z,69.04
2017-11-29T00:08:46.091Z,69.16
2017-11-29T00:11:13.568Z,69.15
2017-11-29T00:13:40.279Z,69.20
2017-11-29T00:16:07.042Z,69.26
2017-11-29T00:18:34.544Z,69.39
2017-11-29T00:21:01.437Z,69.54
2017-11-29T00:23:28.253Z,69.59
2017-11-29T00:25:55.132Z,69.50
2017-11-29T00:28:22.646Z,69.70
2017-11-29T00:30:49.453Z,69.82
2017-11-29T00:33:16.261Z,70.17
2017-11-29T00:35:42.918Z,70.09
2017-11-29T00:38:09.852Z,69.98
2017-11-29T00:40:36.996Z,69.91
2017-11-29T00:43:04.432Z,69.71
2017-11-29T00:45:31.170Z,69.61
2017-11-29T00:47:58.296Z,69.92
2017-11-29T00:50:25.170Z,70.12
2017-11-29T00:52:51.993Z,70.37
2017-11-29T00:55:18.789Z,70.47
2017-11-29T00:57:45.611Z,70.37
2017-11-29T01:00:12.637Z,70.34
2017-11-29T01:02:39.639Z,70.04
2017-11-29T01:05:07.346Z,69.54
2017-11-29T01:07:34.085Z,69.27
2017-11-29T01:10:00.971Z,69.21
2017-11-29T01:12:27.859Z,69.15
2017-11-29T01:14:54.650Z,69.37
2017-11-29T01:17:22.125Z,69.27
2017-11-29T01:19:49.319Z,69.53
2017-11-29T01:22:16.032Z,69.64
2017-11-29T01:24:42.733Z,69.64
2017-11-29T01:27:09.445Z,69.64
2017-11-29T01:29:36.198Z,69.68
2017-11-29T01:32:02.971Z,69.72
2017-11-29T01:34:30.353Z,69.83
2017-11-29T01:36:56.988Z,69.98
2017-11-29T01:39:23.706Z,70.04
2017-11-29T01:41:50.711Z,69.98
2017-11-29T01:44:17.284Z,69.53
2017-11-29T01:46:44.017Z,69.16
2017-11-29T01:49:11.195Z,69.20
2017-11-29T01:51:37.902Z,69.13
2017-11-29T01:54:05.447Z,69.10
2017-11-29T01:56:32.203Z,69.08
2017-11-29T01:58:58.906Z,68.89
2017-11-29T02:01:25.693Z,68.78
2017-11-29T02:03:52.436Z,68.63
2017-11-29T02:06:26.344Z,68.60
2017-11-29T02:08:53.794Z,68.63
2017-11-29T02:11:20.495Z,68.65
2017-11-29T02:13:47.264Z,68.25
2017-11-29T02:16:13.935Z,68.17
2017-11-29T02:18:40.623Z,67.80
2017-11-29T02:21:07.317Z,67.37
2017-11-29T02:23:33.927Z,67.15
2017-11-29T02:26:00.707Z,67.07
2017-11-29T02:28:27.561Z,66.92
2017-11-29T02:30:54.262Z,66.66
2017-11-29T02:33:20.983Z,66.51
2017-11-29T02:35:48.583Z,67.14
2017-11-29T02:38:15.182Z,67.67
2017-11-29T02:41:00.342Z,68.12
2017-11-29T02:43:27.077Z,68.42
2017-11-29T02:45:53.937Z,68.76
2017-11-29T02:48:22.335Z,68.79
2017-11-29T02:50:49.275Z,68.54
2017-11-29T02:53:18.399Z,68.58
2017-11-29T02:55:47.870Z,68.98
2017-11-29T02:58:14.817Z,68.73
2017-11-29T03:00:41.458Z,68.85
2017-11-29T03:03:08.179Z,69.09
2017-11-29T03:05:34.924Z,69.57
2017-11-29T03:08:01.555Z,69.52
2017-11-29T03:10:28.213Z,69.90
2017-11-29T03:12:55.078Z,70.25
2017-11-29T03:15:21.809Z,70.18
2017-11-29T03:17:48.549Z,70.79
2017-11-29T03:20:15.226Z,71.30
2017-11-29T03:22:42.141Z,71.73
2017-11-29T03:25:08.943Z,72.15
2017-11-29T03:27:35.788Z,72.43
2017-11-29T03:30:02.745Z,72.87
2017-11-29T03:32:29.800Z,72.92
2017-11-29T03:35:00.962Z,73.26
2017-11-29T03:37:27.767Z,73.52
2017-11-29T03:39:54.555Z,73.68
2017-11-29T03:42:21.224Z,73.84
2017-11-29T03:44:47.940Z,73.84
2017-11-29T03:47:15.574Z,74.36
2017-11-29T03:49:42.488Z,74.81
2017-11-29T03:52:10.000Z,75.15
2017-11-29T03:54:36.735Z,75.12
2017-11-29T03:57:03.631Z,75.32
2017-11-29T03:59:30.283Z,75.69
2017-11-29T04:01:56.972Z,75.71
2017-11-29T04:04:25.055Z,75.86
2017-11-29T04:06:52.979Z,75.78
2017-11-29T04:09:19.705Z,75.61
2017-11-29T04:11:46.511Z,76.29
2017-11-29T04:14:13.333Z,76.17
2017-11-29T04:16:40.257Z,76.03
2017-11-29T04:19:07.633Z,75.87
2017-11-29T04:21:35.309Z,75.79
2017-11-29T04:24:02.332Z,75.63
2017-11-29T04:26:29.081Z,75.90
2017-11-29T04:28:55.901Z,75.93
2017-11-29T04:31:22.696Z,76.32
2017-11-29T04:33:49.712Z,76.14
2017-11-29T04:36:16.381Z,75.99
2017-11-29T04:38:43.060Z,75.87
2017-11-29T04:41:09.859Z,76.07
2017-11-29T04:43:36.864Z,75.87
2017-11-29T04:46:03.788Z,76.11
2017-11-29T04:48:30.671Z,76.39
2017-11-29T04:50:58.036Z,76.41
2017-11-29T04:53:26.075Z,76.31
2017-11-29T04:56:05.578Z,75.73
2017-11-29T05:01:34.093Z,76.08
2017-11-29T05:04:05.050Z,76.99
2017-11-29T05:06:45.252Z,77.28
2017-11-29T05:09:31.848Z,77.23
2017-11-29T05:11:58.396Z,76.94
2017-11-29T05:14:25.836Z,77.33
2017-11-29T05:16:54.816Z,77.49
2017-11-29T05:19:22.049Z,77.46
2017-11-29T05:21:48.682Z,77.42
2017-11-29T05:24:15.467Z,77.38
2017-11-29T05:26:42.511Z,77.28
2017-11-29T05:29:09.377Z,77.06
2017-11-29T05:31:36.127Z,77.23
2017-11-29T05:34:02.799Z,76.96
2017-11-29T05:36:29.644Z,76.96
2017-11-29T05:38:57.036Z,77.32
2017-11-29T05:41:24.185Z,77.21
2017-11-29T05:43:50.969Z,77.18
2017-11-29T05:46:18.263Z,77.43
2017-11-29T05:48:44.903Z,77.13
2017-11-29T05:51:11.694Z,76.49
2017-11-29T05:53:39.757Z,76.10
2017-11-29T05:56:06.509Z,75.77
2017-11-29T05:58:33.283Z,75.88
2017-11-29T06:01:00.199Z,75.90
2017-11-29T06:03:26.927Z,75.57
2017-11-29T06:05:53.900Z,76.09
2017-11-29T06:08:20.555Z,75.87
2017-11-29T06:10:47.221Z,75.91
2017-11-29T06:13:13.890Z,75.37
2017-11-29T06:15:40.530Z,74.46
2017-11-29T06:18:07.239Z,73.40
2017-11-29T06:20:34.752Z,72.54
2017-11-29T06:23:01.875Z,72.15
2017-11-29T06:25:28.508Z,72.23
2017-11-29T06:27:55.832Z,72.50
2017-11-29T06:30:22.601Z,72.98
2017-11-29T06:32:49.393Z,73.25
2017-11-29T06:35:17.111Z,74.19
2017-11-29T06:37:43.776Z,74.88
2017-11-29T06:40:10.383Z,75.41
2017-11-29T06:42:37.007Z,75.63
2017-11-29T06:45:03.570Z,75.74
2017-11-29T06:47:31.045Z,75.88
2017-11-29T06:49:57.733Z,76.04
2017-11-29T06:52:24.280Z,76.26
2017-11-29T06:54:50.994Z,76.35
2017-11-29T06:57:17.585Z,75.91
2017-11-29T06:59:44.228Z,75.17
2017-11-29T07:02:10.788Z,74.67
2017-11-29T07:04:37.388Z,74.23
2017-11-29T07:07:03.967Z,74.54
2017-11-29T07:09:30.555Z,74.60
2017-11-29T07:11:57.127Z,74.00
2017-11-29T07:14:23.653Z,74.07
2017-11-29T07:16:50.262Z,73.58
2017-11-29T07:19:16.769Z,73.45
2017-11-29T07:21:43.282Z,73.28
2017-11-29T07:24:10.042Z,72.75
2017-11-29T07:26:36.564Z,71.87
2017-11-29T07:29:03.129Z,71.13
2017-11-29T07:31:29.875Z,71.05
2017-11-29T07:33:56.411Z,71.02
2017-11-29T07:36:23.994Z,70.52
2017-11-29T07:38:50.505Z,70.18
2017-11-29T07:43:50.459Z,69.54
2017-11-29T07:46:16.967Z,68.50
2017-11-29T07:48:45.322Z,68.39
2017-11-29T07:51:11.889Z,68.67
2017-11-29T07:53:39.010Z,68.79
2017-11-29T07:56:05.299Z,68.67
2017-11-29T07:58:31.724Z,68.99
2017-11-29T08:00:58.813Z,69.17
2017-11-29T08:03:25.197Z,68.50
2017-11-29T08:05:52.246Z,68.75
2017-11-29T08:08:19.493Z,69.00
2017-11-29T08:10:46.619Z,69.47
2017-11-29T08:13:12.925Z,68.64
2017-11-29T08:15:39.323Z,68.55
2017-11-29T08:18:05.711Z,68.13
2017-11-29T08:20:34.193Z,67.88
2017-11-29T08:23:00.492Z,68.09
2017-11-29T08:25:26.859Z,68.73
2017-11-29T08:27:53.253Z,68.98
2017-11-29T08:30:19.522Z,69.24
2017-11-29T08:32:57.291Z,69.17
2017-11-29T08:35:25.361Z,69.17
2017-11-29T08:37:52.457Z,68.94
2017-11-29T08:40:18.832Z,68.40
2017-11-29T08:42:47.987Z,68.30
2017-11-29T08:45:14.382Z,68.28
2017-11-29T08:47:40.666Z,67.24
2017-11-29T08:50:07.712Z,66.42
2017-11-29T08:52:34.773Z,66.06
2017-11-29T08:55:01.055Z,65.72
2017-11-29T08:57:27.431Z,65.48
2017-11-29T08:59:53.762Z,65.27
2017-11-29T09:02:20.097Z,65.07
2017-11-29T09:04:46.428Z,64.22
2017-11-29T09:07:13.470Z,62.85
2017-11-29T09:09:39.821Z,61.37
2017-11-29T09:12:06.158Z,60.04
2017-11-29T09:14:32.513Z,59.85
2017-11-29T09:16:58.824Z,59.04
2017-11-29T09:19:26.083Z,57.61
2017-11-29T09:21:54.030Z,57.55
2017-11-29T09:24:20.331Z,56.49
2017-11-29T09:26:46.590Z,56.62
2017-11-29T09:29:12.903Z,56.46
2017-11-29T09:31:39.928Z,55.98
2017-11-29T09:34:06.234Z,56.23
2017-11-29T09:36:33.392Z,56.92
2017-11-29T09:38:59.695Z,57.45
2017-11-29T09:41:26.068Z,58.14
2017-11-29T09:43:52.436Z,58.41
2017-11-29T09:46:18.676Z,58.59
2017-11-29T09:48:44.972Z,58.79
2017-11-29T09:51:11.291Z,58.35
2017-11-29T09:53:37.600Z,58.15
2017-11-29T09:56:03.878Z,58.09
2017-11-29T09:58:30.923Z,57.38
2017-11-29T10:00:57.963Z,57.95
2017-11-29T10:03:24.186Z,57.62
2017-11-29T10:05:50.464Z,56.61
2017-11-29T10:08:16.770Z,56.49
2017-11-29T10:10:43.067Z,55.84
2017-11-29T10:13:09.463Z,55.17
2017-11-29T10:15:35.821Z,54.10
2017-11-29T10:18:02.139Z,53.91
2017-11-29T10:20:28.425Z,53.47
2017-11-29T10:22:55.498Z,52.60
2017-11-29T10:25:21.924Z,51.62
2017-11-29T10:27:48.283Z,50.79
2017-11-29T10:30:14.649Z,50.61
2017-11-29T10:32:40.979Z,49.32
2017-11-29T10:35:07.320Z,47.59
2017-11-29T10:37:33.716Z,45.97
2017-11-29T10:40:00.060Z,46.22
2017-11-29T10:42:26.330Z,45.84
2017-11-29T10:44:53.350Z,45.38
2017-11-29T10:47:19.623Z,45.98
2017-11-29T10:49:45.954Z,45.52
2017-11-29T10:52:12.246Z,45.02
2017-11-29T10:54:38.774Z,45.63
2017-11-29T10:57:05.068Z,46.08
2017-11-29T10:59:31.355Z,45.49
2017-11-29T11:01:57.617Z,45.46
2017-11-29T11:04:23.900Z,45.36
2017-11-29T11:06:51.157Z,44.81
2017-11-29T11:09:17.438Z,45.42
2017-11-29T11:11:43.741Z,46.07
2017-11-29T11:14:10.082Z,46.12
2017-11-29T11:16:36.361Z,46.99
2017-11-29T11:19:02.669Z,46.22
2017-11-29T11:21:28.968Z,46.60
2017-11-29T11:23:55.268Z,46.71
2017-11-29T11:26:21.593Z,46.34
2017-11-29T11:28:47.970Z,45.48
2017-11-29T11:31:14.284Z,42.98
2017-11-29T11:33:41.328Z,36.46
2017-11-29T11:36:08.359Z,29.96
2017-11-29T11:38:35.391Z,27.03
2017-11-29T11:41:01.715Z,25.41
2017-11-29T11:43:28.128Z,22.54
2017-11-29T11:45:54.431Z,22.62
2017-11-29T11:48:20.690Z,24.57
2017-11-29T11:50:46.943Z,26.66
2017-11-29T11:53:13.224Z,32.01
2017-11-29T11:55:39.539Z,34.74
2017-11-29T11:58:06.565Z,36.79
2017-11-29T12:00:32.857Z,36.95
2017-11-29T12:02:59.139Z,37.45
2017-11-29T12:05:26.163Z,38.24
2017-11-29T12:07:52.408Z,38.48
2017-11-29T12:10:18.728Z,39.72
2017-11-29T12:12:45.015Z,40.18
2017-11-29T12:15:11.302Z,41.35
2017-11-29T12:17:38.358Z,42.59
2017-11-29T12:20:05.421Z,42.15
2017-11-29T12:22:31.739Z,41.64
2017-11-29T12:24:58.769Z,41.65
2017-11-29T12:27:25.982Z,42.95
2017-11-29T12:29:52.279Z,42.31
2017-11-29T12:32:18.586Z,42.22
2017-11-29T12:34:44.904Z,41.86
2017-11-29T12:37:11.235Z,42.85
2017-11-29T12:39:37.540Z,42.74
2017-11-29T12:42:03.899Z,43.02
2017-11-29T12:44:31.266Z,43.15
2017-11-29T12:46:57.549Z,42.50
2017-11-29T12:49:42.617Z,41.83
2017-11-29T12:52:08.894Z,41.49
2017-11-29T12:54:35.214Z,41.24
2017-11-29T12:57:01.490Z,41.23
2017-11-29T12:59:27.892Z,40.45
2017-11-29T13:01:54.190Z,40.88
2017-11-29T13:04:20.485Z,41.96
2017-11-29T13:06:46.762Z,42.51
2017-11-29T13:09:13.070Z,42.38
2017-11-29T13:11:39.418Z,42.08
2017-11-29T13:14:05.758Z,43.00
2017-11-29T13:16:32.076Z,44.10
2017-11-29T13:18:58.434Z,44.46
2017-11-29T13:21:24.791Z,44.59
2017-11-29T13:23:51.125Z,44.16
2017-11-29T13:26:17.440Z,44.38
2017-11-29T13:28:43.712Z,44.76
2017-11-29T13:31:10.015Z,45.13
2017-11-29T13:33:37.094Z,45.63
2017-11-29T13:36:03.387Z,44.97
2017-11-29T13:38:29.767Z,44.78
2017-11-29T13:40:56.134Z,43.79
2017-11-29T13:43:22.486Z,37.71
2017-11-29T13:45:49.537Z,31.82
2017-11-29T13:48:16.549Z,30.06
2017-11-29T13:50:42.846Z,32.29
2017-11-29T13:53:09.163Z,34.89
2017-11-29T13:55:35.452Z,36.73
2017-11-29T13:58:01.789Z,38.82
2017-11-29T14:00:28.916Z,40.41
2017-11-29T14:02:55.265Z,41.64
2017-11-29T14:05:21.705Z,43.63
2017-11-29T14:07:48.011Z,44.22
2017-11-29T14:10:14.322Z,44.65
2017-11-29T14:12:40.609Z,44.82
2017-11-29T14:15:07.642Z,45.05
2017-11-29T14:17:33.918Z,46.52
2017-11-29T14:20:00.176Z,47.14
2017-11-29T14:22:26.460Z,47.46
2017-11-29T14:24:53.500Z,47.90
2017-11-29T14:27:20.607Z,48.59
2017-11-29T14:29:46.877Z,48.23
2017-11-29T14:32:13.895Z,48.33
2017-11-29T14:34:40.199Z,49.53
2017-11-29T14:37:06.514Z,49.15
2017-11-29T14:39:32.949Z,48.79
2017-11-29T14:41:59.280Z,49.28
2017-11-29T14:44:25.565Z,49.64
2017-11-29T14:46:51.852Z,50.03
2017-11-29T14:49:18.184Z,49.59
2017-11-29T14:51:44.608Z,49.83
2017-11-29T14:54:10.885Z,51.36
2017-11-29T14:56:37.226Z,51.99
2017-11-29T14:59:03.527Z,53.41
2017-11-29T15:01:29.863Z,53.91
2017-11-29T15:03:56.161Z,53.26
2017-11-29T15:06:22.506Z,53.42
2017-11-29T15:08:49.557Z,53.56
2017-11-29T15:11:15.838Z,53.08
2017-11-29T15:13:42.874Z,53.08
2017-11-29T15:16:09.898Z,52.37
2017-11-29T15:18:37.261Z,53.07
2017-11-29T15:21:03.566Z,53.50
2017-11-29T15:23:29.919Z,54.42
2017-11-29T15:25:56.218Z,54.35
2017-11-29T15:28:22.553Z,55.07
2017-11-29T15:30:48.890Z,56.10
2017-11-29T15:33:15.223Z,56.85
2017-11-29T15:35:41.548Z,57.38
2017-11-29T15:38:07.914Z,58.04
2017-11-29T15:40:34.286Z,58.72
2017-11-29T15:43:00.574Z,59.20
2017-11-29T15:45:26.900Z,59.79
2017-11-29T15:47:53.252Z,60.35
2017-11-29T15:50:19.583Z,61.48
2017-11-29T15:52:45.879Z,61.95
2017-11-29T15:55:12.196Z,62.31
2017-11-29T15:57:38.551Z,62.86
2017-11-29T16:00:04.863Z,63.53
2017-11-29T16:02:31.165Z,64.63
2017-11-29T16:04:57.653Z,65.20
2017-11-29T16:07:23.958Z,65.90
2017-11-29T16:09:50.285Z,66.11
2017-11-29T16:12:16.691Z,67.43
2017-11-29T16:14:43.035Z,68.60
2017-11-29T16:17:09.359Z,69.22
2017-11-29T16:19:37.799Z,69.97
2017-11-29T16:22:04.221Z,70.25
2017-11-29T16:24:30.535Z,71.00
2017-11-29T16:26:56.953Z,71.61
2017-11-29T16:29:23.308Z,72.25
2017-11-29T16:31:49.619Z,72.60
2017-11-29T16:34:15.903Z,72.83
2017-11-29T16:36:43.052Z,73.13
2017-11-29T16:39:10.569Z,73.51
2017-11-29T16:41:37.154Z,73.51
2017-11-29T16:44:04.266Z,73.56
2017-11-29T16:46:30.711Z,72.78
2017-11-29T16:48:57.187Z,71.71
2017-11-29T16:51:24.259Z,71.12
2017-11-29T16:53:50.663Z,70.44
2017-11-29T16:56:17.033Z,69.19
2017-11-29T16:58:43.416Z,69.00
2017-11-29T17:01:09.871Z,68.45
2017-11-29T17:03:36.306Z,68.76
2017-11-29T17:06:02.633Z,68.52
2017-11-29T17:08:28.993Z,68.21
2017-11-29T17:10:55.301Z,67.44
2017-11-29T17:13:21.612Z,66.91
2017-11-29T17:15:47.909Z,66.69
2017-11-29T17:18:14.236Z,66.84
2017-11-29T17:20:40.531Z,66.51
2017-11-29T17:23:06.876Z,66.57
2017-11-29T17:25:33.297Z,66.21
2017-11-29T17:27:59.600Z,66.06
2017-11-29T17:30:28.526Z,65.77
2017-11-29T17:32:54.826Z,65.73
2017-11-29T17:35:21.854Z,64.86
2017-11-29T17:37:48.225Z,64.90
2017-11-29T17:40:14.578Z,63.57
2017-11-29T17:42:40.864Z,62.92
2017-11-29T17:45:08.056Z,62.51
2017-11-29T17:47:34.374Z,62.63
2017-11-29T17:50:00.677Z,63.01
2017-11-29T17:52:26.956Z,63.08
2017-11-29T17:54:53.232Z,62.84
2017-11-29T17:57:20.311Z,62.63
2017-11-29T17:59:46.609Z,62.52
2017-11-29T18:02:13.674Z,61.90
2017-11-29T18:04:40.702Z,62.52
2017-11-29T18:07:07.749Z,62.61
2017-11-29T18:09:34.080Z,62.15
2017-11-29T18:12:00.381Z,62.10
2017-11-29T18:14:26.664Z,61.29
2017-11-29T18:16:52.951Z,61.17
2017-11-29T18:19:19.283Z,61.42
2017-11-29T18:21:45.637Z,61.85
2017-11-29T18:24:12.163Z,61.56
2017-11-29T18:26:38.496Z,61.86
2017-11-29T18:29:06.262Z,61.81
2017-11-29T18:31:32.555Z,61.88
2017-11-29T18:33:58.836Z,61.04
2017-11-29T18:36:25.898Z,61.15
2017-11-29T18:38:52.246Z,60.69
2017-11-29T18:41:18.589Z,61.43
2017-11-29T18:43:44.887Z,62.37
2017-11-29T18:46:11.908Z,62.18
2017-11-29T18:48:38.200Z,61.74
2017-11-29T18:51:04.506Z,62.44
2017-11-29T18:53:30.811Z,63.43
2017-11-29T18:55:57.836Z,63.91
2017-11-29T18:58:24.307Z,64.64
2017-11-29T19:00:50.565Z,65.56
2017-11-29T19:03:16.867Z,66.82
2017-11-29T19:05:43.939Z,67.66
2017-11-29T19:08:10.260Z,68.41
2017-11-29T19:10:36.597Z,68.58
2017-11-29T19:13:02.910Z,68.87
2017-11-29T19:15:29.952Z,68.96
2017-11-29T19:17:57.004Z,68.45
2017-11-29T19:20:24.015Z,68.78
2017-11-29T19:22:50.270Z,69.23
2017-11-29T19:25:17.463Z,69.63
2017-11-29T19:27:43.722Z,70.04
2017-11-29T19:30:10.011Z,70.37
2017-11-29T19:32:36.301Z,70.55
2017-11-29T19:35:02.621Z,70.35
2017-11-29T19:37:28.962Z,70.65
2017-11-29T19:39:55.227Z,70.83
2017-11-29T19:42:22.697Z,71.08
2017-11-29T19:44:49.008Z,71.42
2017-11-29T19:47:16.093Z,71.72
2017-11-29T19:49:42.380Z,71.65
2017-11-29T19:52:09.586Z,71.68
2017-11-29T19:54:35.876Z,71.30
2017-11-29T19:57:02.854Z,71.26
2017-11-29T19:59:29.166Z,71.36
2017-11-29T20:01:55.486Z,71.37
2017-11-29T20:04:21.791Z,71.46
2017-11-29T20:06:48.147Z,71.14
2017-11-29T20:09:14.438Z,70.93
2017-11-29T20:11:40.733Z,70.82
2017-11-29T20:14:07.106Z,71.21
2017-11-29T20:16:33.432Z,71.16
2017-11-29T20:19:00.465Z,70.96
2017-11-29T20:21:27.075Z,70.69
2017-11-29T20:23:54.664Z,70.54
2017-11-29T20:26:21.003Z,70.43
2017-11-29T20:28:47.327Z,70.65
2017-11-29T20:31:13.788Z,70.89
2017-11-29T20:33:40.143Z,71.02
2017-11-29T20:36:06.391Z,71.10
2017-11-29T20:38:32.720Z,71.14
2017-11-29T20:40:59.334Z,70.92
2017-11-29T20:43:27.169Z,71.19
2017-11-29T20:45:53.419Z,70.67
2017-11-29T20:48:21.405Z,70.65
2017-11-29T20:50:47.888Z,70.59
2017-11-29T20:53:14.257Z,70.93
2017-11-29T20:55:40.555Z,71.13
2017-11-29T20:58:07.052Z,70.22
2017-11-29T21:00:33.462Z,69.81
2017-11-29T21:03:00.556Z,69.66
2017-11-29T21:05:26.839Z,69.65
2017-11-29T21:07:54.386Z,69.95
2017-11-29T21:10:21.486Z,70.14
2017-11-29T21:12:47.835Z,70.30
2017-11-29T21:15:14.155Z,70.59
2017-11-29T21:17:40.421Z,70.73
2017-11-29T21:20:06.757Z,70.56
2017-11-29T21:22:33.525Z,71.07
2017-11-29T21:25:00.002Z,71.36
2017-11-29T21:27:26.582Z,71.16
2017-11-29T21:29:53.742Z,71.00
2017-11-29T21:32:20.345Z,70.46
2017-11-29T21:34:46.648Z,70.86
2017-11-29T21:37:12.938Z,71.48
2017-11-29T21:39:39.955Z,71.60
2017-11-29T21:42:06.366Z,72.08
2017-11-29T21:44:32.689Z,72.19
2017-11-29T21:46:59.030Z,72.13
2017-11-29T21:49:25.444Z,72.33
2017-11-29T21:51:51.792Z,72.66
2017-11-29T21:54:18.114Z,72.81
2017-11-29T21:56:44.522Z,73.28
2017-11-29T21:59:11.548Z,73.54
2017-11-29T22:01:38.594Z,73.63
2017-11-29T22:04:12.528Z,73.96
2017-11-29T22:06:39.542Z,73.91
2017-11-29T22:09:05.896Z,74.36
2017-11-29T22:11:32.910Z,74.11
2017-11-29T22:13:59.230Z,74.07
2017-11-29T22:16:25.499Z,74.34
2017-11-29T22:18:52.493Z,74.62
2017-11-29T22:21:18.820Z,74.79
2017-11-29T22:23:45.147Z,74.35
2017-11-29T22:26:11.403Z,74.13
2017-11-29T22:28:37.752Z,73.90
2017-11-29T22:31:04.015Z,74.57
2017-11-29T22:33:30.333Z,74.59
2017-11-29T22:35:57.328Z,74.41
2017-11-29T22:38:24.191Z,74.57
2017-11-29T22:40:50.488Z,73.85
2017-11-29T22:43:16.783Z,73.60
2017-11-29T22:45:43.806Z,73.07
2017-11-29T22:48:10.103Z,73.11
2017-11-29T22:50:36.350Z,73.36
2017-11-29T22:53:02.629Z,73.47
2017-11-29T22:55:29.660Z,73.58
2017-11-29T22:57:56.651Z,73.61
2017-11-29T23:00:26.761Z,73.56
2017-11-29T23:02:53.069Z,73.43
2017-11-29T23:05:20.117Z,72.89
2017-11-29T23:07:47.185Z,72.57
2017-11-29T23:10:13.459Z,71.86
2017-11-29T23:12:39.736Z,71.92
2017-11-29T23:15:06.019Z,72.31
2017-11-29T23:17:32.316Z,72.37
2017-11-29T23:19:58.621Z,72.21
2017-11-29T23:22:25.627Z,72.00
2017-11-29T23:24:51.897Z,72.29
2017-11-29T23:27:18.906Z,72.47
2017-11-29T23:29:45.215Z,72.07
2017-11-29T23:32:11.519Z,71.57
2017-11-29T23:34:37.789Z,71.12
2017-11-29T23:37:04.100Z,70.89
2017-11-29T23:39:30.398Z,71.02
2017-11-29T23:41:56.686Z,70.99
2017-11-29T23:44:23.050Z,70.88
2017-11-29T23:46:50.059Z,70.97
2017-11-29T23:49:16.344Z,70.99
2017-11-29T23:51:42.642Z,70.71
2017-11-29T23:54:08.934Z,70.80
2017-11-29T23:56:35.337Z,70.96
2017-11-29T23:59:01.634Z,71.49
